Time;durP1;ratioP1;P1;durP2;ratioP2;P2;SDS_P1;SDS_P2;PMS_P1;PMS_P2;Temp;Humidity;BMP_temperature;BMP_pressure;BME280_temperature;BME280_humidity;BME280_pressure;Samples;Min_cycle;Max_cycle;Signal;HPM_P1;HPM_P2
2024/03/20 00:01:32;;;;;;;14.82;7.28;;;;;;;2.81;100.00;97726.16;4965373;28;20031;-79
2024/03/20 00:04:21;;;;;;;16.02;7.18;;;;;;;2.71;100.00;97715.88;4972189;28;20082;-78
2024/03/20 00:06:47;;;;;;;13.50;6.18;;;;;;;2.73;100.00;97727.28;4963547;28;20109;-79
2024/03/20 00:09:22;;;;;;;15.73;6.63;;;;;;;2.67;100.00;97729.22;4970937;28;20035;-79
2024/03/20 00:11:58;;;;;;;14.85;6.65;;;;;;;2.66;100.00;97727.47;4971310;28;20030;-78
2024/03/20 00:14:36;;;;;;;17.60;7.35;;;;;;;2.71;100.00;97736.13;4944557;28;20029;-78
2024/03/20 00:17:07;;;;;;;18.33;7.65;;;;;;;2.65;100.00;97731.88;4951799;28;20082;-78
2024/03/20 00:19:35;;;;;;;15.98;8.05;;;;;;;2.56;100.00;97733.91;4953115;28;20487;-78
2024/03/20 00:22:01;;;;;;;17.45;8.00;;;;;;;2.55;100.00;97740.97;4968741;28;20034;-78
2024/03/20 00:24:34;;;;;;;24.02;9.43;;;;;;;2.50;100.00;97742.00;4966347;28;20031;-78
2024/03/20 00:27:25;;;;;;;23.67;9.40;;;;;;;2.43;100.00;97745.72;4957861;28;20042;-79
2024/03/20 00:30:00;;;;;;;;;;;;;;;;;;;;;
2024/03/20 00:32:34;;;;;;;24.05;9.45;;;;;;;2.28;100.00;97743.50;4972153;28;20023;-78
2024/03/20 00:35:05;;;;;;;20.60;9.88;;;;;;;2.25;100.00;97735.63;4955066;28;20042;-79
2024/03/20 00:37:39;;;;;;;17.05;8.07;;;;;;;2.27;100.00;97749.66;4971159;28;20065;-79
2024/03/20 00:40:42;;;;;;;15.73;8.25;;;;;;;2.05;100.00;97744.94;4970584;28;20026;-78
2024/03/20 00:43:08;;;;;;;18.55;7.78;;;;;;;1.94;100.00;97746.97;4970694;28;20078;-78
2024/03/20 00:46:10;;;;;;;15.80;7.65;;;;;;;1.89;100.00;97748.00;4963651;28;20046;-79
2024/03/20 00:49:08;;;;;;;25.70;8.38;;;;;;;2.01;100.00;97747.69;4968710;28;20102;-78
2024/03/20 00:51:40;;;;;;;19.25;8.48;;;;;;;1.93;100.00;97752.28;4936621;28;20125;-78
2024/03/20 00:54:17;;;;;;;12.18;6.72;;;;;;;1.86;100.00;97750.69;4952495;28;20055;-79
2024/03/20 00:56:51;;;;;;;17.67;7.13;;;;;;;1.78;100.00;97743.00;4951651;28;20035;-78
2024/03/20 00:59:28;;;;;;;14.32;5.85;;;;;;;1.78;100.00;97750.03;4952315;28;20035;-79
2024/03/20 01:02:00;;;;;;;12.32;5.72;;;;;;;1.68;100.00;97744.09;4964884;28;20498;-78
2024/03/20 01:04:25;;;;;;;11.13;5.15;;;;;;;1.70;100.00;97746.69;4950815;28;20043;-78
2024/03/20 01:07:02;;;;;;;13.20;6.13;;;;;;;1.71;100.00;97745.81;4951426;28;20047;-78
2024/03/20 01:09:40;;;;;;;;;;;;;;;;;;;;;
2024/03/20 01:12:13;;;;;;;10.43;4.88;;;;;;;1.55;100.00;97759.34;4952494;28;20430;-77
2024/03/20 01:14:51;;;;;;;11.10;5.13;;;;;;;1.41;100.00;97745.63;4935844;28;20118;-77
2024/03/20 01:17:26;;;;;;;9.85;4.63;;;;;;;1.27;100.00;97737.16;4959689;28;20026;-78
2024/03/20 01:20:00;;;;;;;10.07;4.85;;;;;;;1.23;100.00;97753.91;4965565;28;20027;-79
2024/03/20 01:22:36;;;;;;;13.05;5.28;;;;;;;1.25;100.00;97753.91;4934781;28;20035;-78
2024/03/20 01:28:16;;;;;;;9.68;5.18;;;;;;;1.22;100.00;97754.84;4970395;28;20041;-77
2024/03/20 01:30:47;;;;;;;11.27;5.30;;;;;;;1.15;100.00;97760.25;4938584;28;20041;-78
2024/03/20 01:33:18;;;;;;;10.73;4.68;;;;;;;1.10;100.00;97757.75;4970320;28;20039;-78
2024/03/20 01:35:52;;;;;;;10.02;5.20;;;;;;;1.11;100.00;97745.44;4931142;28;20023;-78
2024/03/20 01:38:30;;;;;;;10.77;4.75;;;;;;;1.08;100.00;97755.13;4939586;29;20521;-78
2024/03/20 01:41:01;;;;;;;11.43;5.30;;;;;;;1.08;100.00;97757.75;4959606;28;20027;-78
2024/03/20 01:43:27;;;;;;;11.68;5.13;;;;;;;1.07;100.00;97755.16;4957872;28;20090;-78
2024/03/20 01:46:06;;;;;;;9.68;4.90;;;;;;;0.98;100.00;97758.00;4942832;28;20031;-78
2024/03/20 01:48:47;;;;;;;11.23;5.22;;;;;;;0.97;100.00;97764.16;4973721;28;20035;-78
2024/03/20 01:51:17;;;;;;;11.15;5.20;;;;;;;0.91;100.00;97748.47;4967064;28;20063;-79
2024/03/20 01:53:50;;;;;;;10.05;5.22;;;;;;;0.96;100.00;97768.53;4965186;28;20031;-79
2024/03/20 01:56:23;;;;;;;12.00;5.78;;;;;;;0.96;100.00;97767.69;4973852;28;20035;-79
2024/03/20 01:58:55;;;;;;;12.32;6.10;;;;;;;0.96;100.00;97765.91;4958488;28;20030;-78
2024/03/20 02:04:20;;;;;;;17.10;6.97;;;;;;;0.97;100.00;97764.16;4968441;28;20178;-78
2024/03/20 02:06:57;;;;;;;12.45;6.68;;;;;;;0.82;100.00;97748.69;4953892;28;20027;-78
2024/03/20 02:09:40;;;;;;;16.52;6.95;;;;;;;0.76;100.00;97749.66;4963222;28;20038;-78
2024/03/20 02:12:10;;;;;;;13.25;6.47;;;;;;;0.78;100.00;97752.25;4973342;28;20176;-77
2024/03/20 02:14:44;;;;;;;14.68;6.15;;;;;;;0.75;100.00;97757.59;4955836;28;20042;-78
2024/03/20 02:17:16;;;;;;;11.00;5.28;;;;;;;0.73;100.00;97762.91;4953770;28;20085;-78
2024/03/20 02:19:51;;;;;;;14.30;5.25;;;;;;;0.64;100.00;97756.94;4973163;28;20027;-77
2024/03/20 02:22:21;;;;;;;13.48;6.50;;;;;;;0.49;100.00;97751.06;4947471;29;20082;-77
2024/03/20 02:25:06;;;;;;;16.23;6.53;;;;;;;0.59;100.00;97764.91;4971336;28;20031;-78
2024/03/20 02:27:51;;;;;;;;;;;;;;;;;;;;;
2024/03/20 02:30:26;;;;;;;9.25;4.82;;;;;;;0.36;100.00;97757.47;4962091;28;20027;-78
2024/03/20 02:32:59;;;;;;;7.30;4.20;;;;;;;0.40;100.00;97755.66;4961739;28;20023;-78
2024/03/20 02:35:48;;;;;;;7.95;3.92;;;;;;;0.37;100.00;97758.34;4953620;28;20065;-79
2024/03/20 02:38:18;;;;;;;9.05;4.43;;;;;;;0.30;100.00;97756.72;4959190;28;20410;-78
2024/03/20 02:40:52;;;;;;;8.25;4.50;;;;;;;0.39;100.00;97765.31;4971324;28;20888;-78
2024/03/20 02:43:36;;;;;;;8.10;4.25;;;;;;;0.49;100.00;97755.47;4956717;28;20015;-79
2024/03/20 02:46:14;;;;;;;10.13;5.20;;;;;;;0.53;100.00;97754.50;4958532;28;20159;-79
2024/03/20 02:48:42;;;;;;;9.70;4.38;;;;;;;0.55;100.00;97761.47;4953463;28;20041;-78
2024/03/20 02:51:17;;;;;;;8.85;4.03;;;;;;;0.49;100.00;97766.84;4953430;28;20464;-79
2024/03/20 02:53:58;;;;;;;;;;;;;;;;;;;;;
2024/03/20 02:56:27;;;;;;;8.35;4.07;;;;;;;0.54;100.00;97756.25;4972891;28;20023;-77
2024/03/20 02:59:36;;;;;;;8.40;4.70;;;;;;;0.61;100.00;97780.69;4970026;28;20025;-79
2024/03/20 03:02:12;;;;;;;19.25;5.47;;;;;;;0.59;100.00;97779.81;4954347;28;20394;-77
2024/03/20 03:04:46;;;;;;;10.48;5.05;;;;;;;0.62;100.00;97788.53;4970942;28;20483;-78
2024/03/20 03:07:26;;;;;;;8.93;4.78;;;;;;;0.56;100.00;97791.28;4957000;28;20034;-78
2024/03/20 03:09:56;;;;;;;10.18;5.22;;;;;;;0.53;100.00;97792.22;4957009;28;20031;-77
2024/03/20 03:12:43;;;;;;;15.85;6.47;;;;;;;0.51;100.00;97783.50;4952976;28;20027;-78
2024/03/20 03:15:18;;;;;;;11.07;5.60;;;;;;;0.41;100.00;97792.44;4953919;28;20495;-78
2024/03/20 03:18:12;;;;;;;13.80;5.32;;;;;;;0.38;100.00;97794.25;4959899;28;20093;-78
2024/03/20 03:20:46;;;;;;;10.32;4.75;;;;;;;0.36;100.00;97796.94;4956021;28;20030;-78
2024/03/20 03:23:26;;;;;;;;;;;;;;;;;;;;;
2024/03/20 03:26:14;;;;;;;11.80;4.82;;;;;;;0.26;100.00;97797.97;4972965;28;20417;-77
2024/03/20 03:29:01;;;;;;;11.93;5.10;;;;;;;0.15;100.00;97797.31;4956526;28;20030;-77
2024/03/20 03:31:39;;;;;;;;;;;;;;;;;;;;;
2024/03/20 03:34:18;;;;;;;11.38;4.90;;;;;;;0.08;100.00;97786.91;4971670;28;20027;-77
2024/03/20 03:36:46;;;;;;;12.63;4.93;;;;;;;0.03;100.00;97789.63;4944369;28;20035;-78
2024/03/20 03:39:17;;;;;;;19.10;5.55;;;;;;;0.16;100.00;97793.75;4970558;28;20035;-78
2024/03/20 03:42:04;;;;;;;17.23;5.68;;;;;;;0.18;100.00;97792.00;4972721;28;20166;-78
2024/03/20 03:44:44;;;;;;;16.77;7.50;;;;;;;0.23;100.00;97803.28;4964301;28;20062;-77
2024/03/20 03:47:16;;;;;;;14.38;6.95;;;;;;;0.21;100.00;97799.84;4938549;28;20034;-77
2024/03/20 03:50:03;;;;;;;16.60;7.93;;;;;;;0.21;100.00;97806.84;4936425;28;20035;-76
2024/03/20 03:52:38;;;;;;;13.73;6.88;;;;;;;0.10;100.00;97798.25;4959707;28;20429;-79
2024/03/20 03:55:26;;;;;;;16.80;6.40;;;;;;;0.17;100.00;97803.41;4938048;28;20039;-77
2024/03/20 03:58:06;;;;;;;15.77;7.05;;;;;;;0.13;100.00;97800.81;4967045;28;20035;-78
2024/03/20 04:00:40;;;;;;;16.05;6.57;;;;;;;0.23;100.00;97794.53;4971482;28;20030;-78
2024/03/20 04:03:15;;;;;;;20.27;6.55;;;;;;;0.29;100.00;97802.31;4971772;28;20031;-77
2024/03/20 04:05:52;;;;;;;16.88;7.60;;;;;;;0.31;100.00;97798.75;4952052;28;20043;-77
2024/03/20 04:08:43;;;;;;;24.20;7.45;;;;;;;0.33;100.00;97807.50;4972354;28;20027;-78
2024/03/20 04:11:32;;;;;;;23.02;7.40;;;;;;;0.43;100.00;97800.31;4955813;28;20058;-78
2024/03/20 04:14:03;;;;;;;23.83;6.50;;;;;;;0.46;100.00;97803.72;4967651;28;20045;-78
2024/03/20 04:16:29;;;;;;;14.10;6.72;;;;;;;0.45;100.00;97799.38;4963424;28;20109;-78
2024/03/20 04:18:58;;;;;;;17.10;6.65;;;;;;;0.51;100.00;97801.03;4950977;28;20071;-79
2024/03/20 04:21:26;;;;;;;20.50;7.65;;;;;;;0.48;100.00;97796.69;4947578;28;20043;-78
2024/03/20 04:23:54;;;;;;;19.70;7.78;;;;;;;0.49;100.00;97798.41;4959397;28;20041;-78
2024/03/20 04:29:16;;;;;;;20.40;8.65;;;;;;;0.60;100.00;97813.16;4962603;28;20571;-77
2024/03/20 04:31:57;;;;;;;27.90;10.40;;;;;;;0.53;100.00;97808.00;4949503;28;20031;-77
2024/03/20 04:34:38;;;;;;;;;;;;;;;;;;;;;
2024/03/20 04:37:09;;;;;;;23.45;10.35;;;;;;;0.74;100.00;97825.16;4960407;28;20494;-78
2024/03/20 04:39:42;;;;;;;24.08;10.32;;;;;;;0.88;100.00;97827.53;4957133;28;20035;-78
2024/03/20 04:42:21;;;;;;;22.08;11.02;;;;;;;0.97;100.00;97817.69;4964908;28;20100;-78
2024/03/20 04:44:55;;;;;;;29.88;10.95;;;;;;;1.02;100.00;97818.44;4937640;28;20557;-77
2024/03/20 04:47:20;;;;;;;27.45;13.20;;;;;;;1.21;100.00;97825.97;4966121;28;20515;-77
2024/03/20 04:49:53;;;;;;;30.90;13.07;;;;;;;1.23;100.00;97822.41;4938669;28;20042;-78
2024/03/20 04:52:22;;;;;;;28.02;10.88;;;;;;;1.44;100.00;97840.44;4960980;28;20039;-78
2024/03/20 04:55:04;;;;;;;;;;;;;;;;;;;;;
2024/03/20 04:57:56;;;;;;;23.83;9.40;;;;;;;1.67;100.00;97853.09;4964305;28;20023;-77
2024/03/20 05:00:38;;;;;;;31.40;10.65;;;;;;;1.69;100.00;97845.16;4958466;28;20082;-78
2024/03/20 05:03:07;;;;;;;24.60;9.77;;;;;;;1.77;100.00;97845.84;4957782;28;20594;-78
2024/03/20 05:05:45;;;;;;;;;;;;;;;;;;;;;
2024/03/20 05:08:23;;;;;;;18.80;8.73;;;;;;;1.86;100.00;97849.16;4952163;28;20513;-78
2024/03/20 05:10:53;;;;;;;23.48;10.07;;;;;;;1.97;100.00;97846.28;4959125;28;20534;-78
2024/03/20 05:13:21;;;;;;;130.75;52.38;;;;;;;2.05;100.00;97849.59;4952733;28;20031;-78
2024/03/20 05:15:56;;;;;;;105.45;45.10;;;;;;;2.08;100.00;97854.78;4966444;28;20097;-79
2024/03/20 05:18:47;;;;;;;20.05;9.02;;;;;;;2.08;100.00;97844.25;4957537;28;20027;-77
2024/03/20 05:21:17;;;;;;;14.82;6.75;;;;;;;2.09;100.00;97846.00;4956499;28;20035;-78
2024/03/20 05:23:58;;;;;;;25.63;9.75;;;;;;;2.09;100.00;97851.25;4973963;28;20038;-78
2024/03/20 05:26:55;;;;;;;39.72;13.20;;;;;;;2.29;100.00;97859.56;4965704;28;20039;-78
2024/03/20 05:29:24;;;;;;;34.65;12.88;;;;;;;3.34;100.00;97852.34;4965279;28;20117;-79
2024/03/20 05:31:59;;;;;;;27.27;11.70;;;;;;;4.46;100.00;97843.56;4975112;28;20026;-78
2024/03/20 05:34:24;;;;;;;25.00;10.05;;;;;;;5.54;100.00;97840.59;4957586;28;20402;-77
2024/03/20 05:37:19;;;;;;;25.98;10.88;;;;;;;6.31;100.00;97829.63;4957786;28;20037;-78
2024/03/20 05:39:44;;;;;;;24.45;11.50;;;;;;;6.97;100.00;97820.63;4973524;28;20031;-78
2024/03/20 05:42:13;;;;;;;21.05;9.80;;;;;;;7.23;100.00;97826.63;4966234;28;20066;-78
2024/03/20 05:44:43;;;;;;;24.23;9.93;;;;;;;7.30;100.00;97825.41;4936705;28;20407;-78
2024/03/20 05:47:32;;;;;;;27.35;11.75;;;;;;;7.91;97.55;97831.44;4954500;28;20091;-78
2024/03/20 05:50:00;;;;;;;24.13;9.32;;;;;;;8.37;87.43;97819.47;4954411;28;20534;-79
2024/03/20 05:52:41;;;;;;;41.28;11.18;;;;;;;8.92;81.96;97829.13;4971996;28;20528;-79
2024/03/20 05:55:32;;;;;;;17.88;8.25;;;;;;;8.90;77.05;97825.69;4957738;28;20117;-79
2024/03/20 05:58:02;;;;;;;20.92;8.60;;;;;;;8.61;78.20;97826.31;4965160;28;20506;-79
2024/03/20 06:00:42;;;;;;;21.20;8.55;;;;;;;9.18;74.57;97826.00;4965419;28;20105;-78
2024/03/20 06:03:13;;;;;;;22.98;9.25;;;;;;;8.96;72.54;97828.03;4954136;28;20069;-79
2024/03/20 06:05:41;;;;;;;17.65;8.18;;;;;;;8.99;66.97;97817.22;4971364;28;20135;-78
2024/03/20 06:08:26;;;;;;;16.05;7.90;;;;;;;9.08;66.26;97821.22;4968514;28;20475;-79
2024/03/20 06:10:59;;;;;;;14.70;8.45;;;;;;;9.54;67.90;97825.00;4938819;28;20190;-79
2024/03/20 06:13:31;;;;;;;20.40;8.57;;;;;;;10.43;60.10;97803.16;4954726;28;20079;-77
2024/03/20 06:15:59;;;;;;;17.35;8.70;;;;;;;10.43;59.62;97824.56;4957442;28;20023;-78
2024/03/20 06:18:55;;;;;;;17.45;7.78;;;;;;;10.89;57.72;97811.06;4956632;28;20491;-78
2024/03/20 06:21:34;;;;;;;22.48;8.40;;;;;;;11.62;55.02;97811.13;4970674;28;20121;-78
2024/03/20 06:24:11;;;;;;;27.05;10.85;;;;;;;11.51;54.55;97816.28;4953600;28;20497;-79
2024/03/20 06:26:45;;;;;;;16.05;8.23;;;;;;;12.31;53.29;97811.19;4942754;28;20034;-78
2024/03/20 06:29:19;;;;;;;20.05;8.88;;;;;;;12.86;51.21;97803.91;4968348;28;20467;-78
2024/03/20 06:31:54;;;;;;;16.42;7.00;;;;;;;12.67;49.63;97799.91;4957314;28;20739;-77
2024/03/20 06:34:37;;;;;;;16.63;7.55;;;;;;;12.85;48.92;97798.66;4957438;28;20059;-78
2024/03/20 06:37:08;;;;;;;19.13;7.78;;;;;;;12.58;49.45;97800.50;4955159;28;20027;-78
2024/03/20 06:40:02;;;;;;;52.05;29.48;;;;;;;13.07;48.76;97805.16;4953994;28;20042;-79
2024/03/20 06:42:50;;;;;;;23.10;8.32;;;;;;;12.31;49.02;97808.50;4953235;28;20106;-78
2024/03/20 06:45:19;;;;;;;15.60;7.55;;;;;;;11.90;49.87;97817.38;4960260;28;20078;-78
2024/03/20 06:47:59;;;;;;;17.85;7.90;;;;;;;12.42;49.53;97808.69;4970133;28;20042;-79
2024/03/20 06:50:36;;;;;;;18.50;8.20;;;;;;;12.84;48.92;97819.28;4972568;28;20086;-79
2024/03/20 06:53:14;;;;;;;14.40;7.75;;;;;;;11.70;49.65;97823.13;4961469;28;20134;-80
2024/03/20 06:55:53;;;;;;;24.48;11.63;;;;;;;12.89;49.26;97824.31;4953386;28;20109;-79
2024/03/20 06:58:20;;;;;;;12.30;7.53;;;;;;;13.18;47.13;97828.66;4967956;28;20402;-78
2024/03/20 07:01:04;;;;;;;15.32;6.65;;;;;;;13.65;47.25;97825.38;4956009;28;20415;-78
2024/03/20 07:03:37;;;;;;;13.48;5.78;;;;;;;14.43;44.78;97812.59;4956521;28;20082;-79
2024/03/20 07:06:17;;;;;;;12.77;6.38;;;;;;;14.07;44.61;97825.03;4971356;28;20046;-79
2024/03/20 07:08:53;;;;;;;12.13;6.38;;;;;;;14.00;44.78;97812.97;4973411;28;20034;-78
2024/03/20 07:11:27;;;;;;;18.05;6.90;;;;;;;14.40;44.01;97804.75;4959722;28;20069;-79
2024/03/20 07:13:54;;;;;;;12.07;5.88;;;;;;;14.60;43.38;97813.09;4971278;28;20069;-79
2024/03/20 07:16:30;;;;;;;13.23;7.00;;;;;;;15.17;43.49;97807.84;4972239;28;20023;-79
2024/03/20 07:18:58;;;;;;;11.60;5.72;;;;;;;15.70;41.63;97802.88;4971998;28;20022;-80
2024/03/20 07:21:28;;;;;;;15.68;5.90;;;;;;;16.08;40.49;97803.41;4958804;28;20067;-78
2024/03/20 07:24:16;;;;;;;;;;;;;;;;;;;;;
2024/03/20 07:26:51;;;;;;;21.52;8.90;;;;;;;15.92;40.33;97812.84;4965542;28;20061;-79
2024/03/20 07:29:19;;;;;;;19.08;7.75;;;;;;;16.25;39.84;97804.75;4973345;28;20029;-78
2024/03/20 07:31:56;;;;;;;18.58;6.75;;;;;;;16.03;39.80;97802.03;4973109;28;20027;-78
2024/03/20 07:34:31;;;;;;;25.63;8.20;;;;;;;15.31;40.44;97808.63;4957911;28;20035;-79
2024/03/20 07:37:06;;;;;;;19.13;7.70;;;;;;;16.16;39.36;97797.38;4954602;28;20035;-78
2024/03/20 07:39:48;;;;;;;20.90;8.63;;;;;;;16.58;39.24;97780.41;4965438;28;20225;-79
2024/03/20 07:42:42;;;;;;;22.15;8.95;;;;;;;16.35;39.30;97791.34;4964786;28;20031;-78
2024/03/20 07:45:17;;;;;;;22.48;8.20;;;;;;;16.95;39.13;97797.13;4969156;28;20034;-78
2024/03/20 07:47:44;;;;;;;19.52;7.82;;;;;;;17.82;37.34;97794.13;4960219;28;20109;-79
2024/03/20 07:50:14;;;;;;;18.05;8.88;;;;;;;18.54;36.80;97799.47;4954938;28;20097;-79
2024/03/20 07:52:47;;;;;;;13.77;7.50;;;;;;;19.13;35.80;97787.72;4955228;28;20495;-78
2024/03/20 07:55:18;;;;;;;24.58;8.52;;;;;;;19.31;34.72;97781.47;4971424;28;20099;-79
2024/03/20 07:57:46;;;;;;;24.10;11.02;;;;;;;19.03;34.98;97800.41;4955750;28;20030;-79
2024/03/20 08:00:33;;;;;;;11.98;6.90;;;;;;;18.63;34.59;97785.09;4964613;28;20434;-80
2024/03/20 08:03:05;;;;;;;10.70;6.95;;;;;;;18.11;35.18;97788.00;4969881;28;20534;-80
2024/03/20 08:06:03;;;;;;;12.55;5.90;;;;;;;18.10;35.65;97797.97;4952071;28;20031;-80
2024/03/20 08:08:35;;;;;;;13.40;5.60;;;;;;;18.75;34.48;97788.53;4958997;28;20026;-79
2024/03/20 08:11:17;;;;;;;36.83;19.92;;;;;;;16.45;36.66;97795.03;4954369;28;20031;-77
2024/03/20 08:13:50;;;;;;;12.65;5.63;;;;;;;16.96;36.52;97804.25;4951720;28;20031;-79
2024/03/20 08:16:30;;;;;;;13.13;6.15;;;;;;;17.09;36.45;97799.56;4960735;28;20023;-79
2024/03/20 08:19:00;;;;;;;14.40;5.57;;;;;;;17.45;36.20;97792.84;4943682;28;20031;-79
2024/03/20 08:21:44;;;;;;;;;;;;;;;;;;;;;
2024/03/20 08:24:21;;;;;;;14.20;5.25;;;;;;;19.31;34.29;97775.16;4968873;28;20037;-79
2024/03/20 08:26:54;;;;;;;14.32;5.80;;;;;;;20.45;33.69;97774.06;4954816;28;20042;-79
2024/03/20 08:29:22;;;;;;;10.48;5.70;;;;;;;20.29;32.37;97776.56;4961718;28;20039;-79
2024/03/20 08:31:59;;;;;;;11.10;5.18;;;;;;;20.81;32.24;97768.69;4959326;28;20050;-80
2024/03/20 08:34:36;;;;;;;7.35;4.40;;;;;;;20.53;33.06;97765.16;4962118;28;20054;-78
2024/03/20 08:37:07;;;;;;;8.52;5.45;;;;;;;21.09;32.88;97773.13;4954339;28;20035;-78
2024/03/20 08:39:41;;;;;;;9.38;4.60;;;;;;;21.37;32.06;97761.13;4942930;29;20093;-78
2024/03/20 08:42:17;;;;;;;13.27;5.93;;;;;;;21.53;31.63;97765.88;4961194;28;20047;-80
2024/03/20 08:45:24;;;;;;;9.13;5.22;;;;;;;21.66;32.24;97755.41;4941568;28;20062;-79
2024/03/20 08:47:52;;;;;;;10.65;5.55;;;;;;;21.94;31.88;97757.00;4935497;28;20054;-79
2024/03/20 08:50:43;;;;;;;6.50;4.32;;;;;;;23.05;30.23;97742.31;4971707;28;20035;-78
2024/03/20 08:53:23;;;;;;;7.93;5.00;;;;;;;22.08;30.44;97745.53;4974529;28;20031;-79
2024/03/20 08:56:06;;;;;;;6.40;4.43;;;;;;;21.57;30.78;97745.47;4945684;29;20437;-80
2024/03/20 08:58:37;;;;;;;7.90;5.13;;;;;;;21.03;31.11;97755.53;4951021;28;20061;-80
2024/03/20 09:01:20;;;;;;;8.23;4.60;;;;;;;21.67;32.29;97759.84;4953818;28;20023;-78
2024/03/20 09:03:46;;;;;;;7.57;4.40;;;;;;;22.17;30.67;97761.91;4960553;28;20086;-79
2024/03/20 09:06:29;;;;;;;8.35;5.38;;;;;;;20.64;32.81;97762.19;4960246;28;20031;-79
2024/03/20 09:09:01;;;;;;;8.32;4.95;;;;;;;20.37;32.25;97757.63;4962337;28;20109;-78
2024/03/20 09:11:35;;;;;;;7.18;4.10;;;;;;;20.35;32.58;97756.94;4954329;28;20477;-79
2024/03/20 09:14:01;;;;;;;6.25;4.43;;;;;;;20.30;32.23;97750.25;4945904;28;20033;-80
2024/03/20 09:16:31;;;;;;;5.45;3.83;;;;;;;21.58;32.02;97758.94;4954614;28;20062;-80
2024/03/20 09:19:10;;;;;;;9.95;4.15;;;;;;;20.86;31.66;97755.47;4962788;28;20462;-80
2024/03/20 09:21:46;;;;;;;8.57;4.00;;;;;;;21.46;31.13;97753.88;4941994;28;20569;-79
2024/03/20 09:24:42;;;;;;;9.95;4.65;;;;;;;21.33;31.83;97750.72;4938849;28;20482;-80
2024/03/20 09:30:27;;;;;;;6.28;4.10;;;;;;;20.11;32.37;97750.31;4962655;28;20035;-79
2024/03/20 09:32:55;;;;;;;7.55;4.43;;;;;;;20.58;32.16;97746.50;4954155;28;20114;-79
2024/03/20 09:35:29;;;;;;;7.30;3.80;;;;;;;20.49;32.20;97733.81;4970038;28;20462;-78
2024/03/20 09:37:58;;;;;;;7.65;4.85;;;;;;;22.15;30.90;97727.47;4954128;28;20069;-80
2024/03/20 09:40:34;;;;;;;10.35;4.97;;;;;;;22.59;30.25;97720.00;4969968;28;20030;-78
2024/03/20 09:43:03;;;;;;;5.90;3.75;;;;;;;19.07;32.54;97731.34;4958659;28;20562;-78
2024/03/20 09:45:36;;;;;;;7.38;3.65;;;;;;;20.42;32.48;97735.47;4950342;28;20023;-78
2024/03/20 09:48:24;;;;;;;4.82;3.30;;;;;;;20.52;32.03;97730.81;4942268;28;20050;-79
2024/03/20 09:51:00;;;;;;;8.05;3.60;;;;;;;20.00;32.07;97732.31;4934770;28;20032;-79
2024/03/20 09:53:38;;;;;;;;;;;;;;;;;;;;;
2024/03/20 09:56:30;;;;;;;9.65;4.25;;;;;;;22.49;30.52;97723.88;4951128;28;20024;-80
2024/03/20 09:59:22;;;;;;;8.63;3.88;;;;;;;22.66;29.34;97715.63;4950436;28;20550;-79
2024/03/20 10:01:53;;;;;;;5.45;3.67;;;;;;;22.80;29.43;97714.13;4955034;28;20082;-79
2024/03/20 10:04:36;;;;;;;8.73;4.43;;;;;;;22.36;30.05;97723.50;4973147;28;20110;-78
2024/03/20 10:07:22;;;;;;;6.95;4.47;;;;;;;22.87;29.87;97714.31;4965313;28;20146;-79
2024/03/20 10:09:58;;;;;;;8.60;3.63;;;;;;;23.66;28.98;97709.94;4964362;28;20038;-79
2024/03/20 10:12:27;;;;;;;6.63;4.32;;;;;;;23.02;30.29;97713.50;4968534;28;20034;-79
2024/03/20 10:15:27;;;;;;;5.25;3.95;;;;;;;22.11;30.58;97712.50;4937708;28;20028;-78
2024/03/20 10:18:08;;;;;;;;;;;;;;;;;;;;;
2024/03/20 10:20:44;;;;;;;;;;;;;;;;;;;;;
2024/03/20 10:23:26;;;;;;;5.88;3.90;;;;;;;23.33;29.42;97699.16;4962481;28;20503;-77
2024/03/20 10:26:20;;;;;;;7.22;4.05;;;;;;;22.39;29.63;97698.66;4973148;28;20147;-79
2024/03/20 10:28:55;;;;;;;12.45;6.28;;;;;;;23.32;29.58;97690.13;4969212;28;20023;-78
2024/03/20 10:31:29;;;;;;;8.65;3.95;;;;;;;23.96;28.54;97688.38;4951071;28;20085;-79
2024/03/20 10:34:18;;;;;;;8.38;3.72;;;;;;;23.49;29.16;97689.13;4962831;28;20034;-79
2024/03/20 10:36:55;;;;;;;6.00;3.38;;;;;;;21.61;30.35;97703.28;4953458;28;20030;-79
2024/03/20 10:39:38;;;;;;;7.75;3.70;;;;;;;22.48;30.12;97697.66;4965950;28;20030;-79
2024/03/20 10:42:25;;;;;;;3.95;3.13;;;;;;;22.03;30.97;97687.91;4962846;28;20034;-78
2024/03/20 10:44:52;;;;;;;5.95;4.20;;;;;;;22.07;30.21;97683.84;4954623;28;20031;-79
2024/03/20 10:47:25;;;;;;;4.65;3.55;;;;;;;22.18;30.55;97674.50;4936918;29;20035;-79
2024/03/20 10:49:56;;;;;;;5.70;3.10;;;;;;;23.20;30.03;97675.97;4958196;28;20030;-77
2024/03/20 10:52:47;;;;;;;7.55;4.22;;;;;;;23.96;28.68;97667.38;4965662;28;20067;-79
2024/03/20 10:55:18;;;;;;;7.32;4.25;;;;;;;25.07;28.10;97666.13;4954213;28;20023;-80
2024/03/20 10:57:52;;;;;;;5.85;3.38;;;;;;;24.03;28.86;97668.34;4937087;28;20007;-79
2024/03/20 11:00:47;;;;;;;10.52;7.82;;;;;;;25.51;27.56;97662.69;4952481;28;20026;-79
2024/03/20 11:03:48;;;;;;;4.88;3.72;;;;;;;24.48;27.96;97666.84;4946480;28;20680;-80
2024/03/20 11:06:43;;;;;;;4.28;3.13;;;;;;;24.80;27.58;97661.16;4972907;28;20047;-82
2024/03/20 11:09:26;;;;;;;5.85;3.70;;;;;;;23.41;28.86;97659.09;4957608;28;20483;-82
2024/03/20 11:12:09;;;;;;;8.43;3.63;;;;;;;23.42;29.09;97654.47;4945205;28;20033;-80
2024/03/20 11:14:47;;;;;;;6.22;3.70;;;;;;;24.16;28.53;97649.53;4947003;28;20073;-79
2024/03/20 11:17:15;;;;;;;11.63;4.10;;;;;;;24.93;28.43;97653.22;4943321;28;20019;-79
2024/03/20 11:19:43;;;;;;;10.57;6.57;;;;;;;26.21;27.23;97641.25;4968952;28;20031;-79
2024/03/20 11:22:31;;;;;;;6.80;3.53;;;;;;;26.47;27.09;97643.47;4967971;28;20042;-78
2024/03/20 11:25:00;;;;;;;5.53;3.28;;;;;;;24.57;28.20;97646.59;4945510;28;20033;-78
2024/03/20 11:27:54;;;;;;;15.18;9.98;;;;;;;23.20;28.38;97634.16;4961313;28;20119;-80
2024/03/20 11:30:32;;;;;;;4.90;3.45;;;;;;;21.57;29.92;97636.56;4949950;28;20042;-79
2024/03/20 11:33:22;;;;;;;5.88;3.10;;;;;;;22.11;30.14;97632.59;4954504;28;20058;-80
2024/03/20 11:35:48;;;;;;;2.63;2.38;;;;;;;23.48;28.42;97621.03;4946778;28;20486;-80
2024/03/20 11:38:23;;;;;;;2.85;2.38;;;;;;;24.07;28.05;97617.78;4964266;28;20054;-79
2024/03/20 11:40:51;;;;;;;2.95;2.40;;;;;;;25.04;27.15;97611.72;4962348;28;20037;-80
2024/03/20 11:43:27;;;;;;;23.63;6.03;;;;;;;25.28;27.67;97618.91;4953038;28;20114;-80
2024/03/20 11:46:26;;;;;;;;;;;;;;;;;;;;;
2024/03/20 11:49:21;;;;;;;;;;;;;;;;;;;;;
2024/03/20 11:52:25;;;;;;;;;;;;;;;;;;;;;
2024/03/20 11:55:01;;;;;;;7.63;2.50;;;;;;;25.01;26.83;97597.59;4954880;28;20057;-80
2024/03/20 11:57:53;;;;;;;4.68;2.42;;;;;;;25.24;26.80;97596.50;4958373;28;20069;-80
2024/03/20 12:00:19;;;;;;;9.75;2.75;;;;;;;24.59;28.46;97606.22;4941844;28;20181;-80
2024/03/20 12:02:47;;;;;;;4.38;2.85;;;;;;;24.62;28.17;97605.88;4951421;28;20058;-80
2024/03/20 12:05:18;;;;;;;7.18;3.10;;;;;;;25.42;27.68;97598.03;4945164;28;20034;-78
2024/03/20 12:07:57;;;;;;;5.80;3.13;;;;;;;26.34;26.49;97587.38;4969785;28;20110;-81
2024/03/20 12:10:49;;;;;;;5.63;3.50;;;;;;;25.74;26.64;97586.78;4966830;28;20042;-80
2024/03/20 12:13:17;;;;;;;3.72;2.75;;;;;;;27.11;26.45;97586.75;4959761;28;20062;-79
2024/03/20 12:15:52;;;;;;;3.28;2.50;;;;;;;25.21;26.51;97572.22;4973921;28;20514;-81
2024/03/20 12:18:33;;;;;;;4.90;2.97;;;;;;;25.14;27.16;97570.41;4955329;28;20607;-80
2024/03/20 12:21:03;;;;;;;8.93;2.58;;;;;;;24.79;27.45;97580.09;4961327;28;20031;-80
2024/03/20 12:23:49;;;;;;;6.55;2.63;;;;;;;24.68;27.43;97584.09;4947557;28;20031;-80
2024/03/20 12:26:29;;;;;;;7.20;2.90;;;;;;;25.02;26.55;97575.47;4957477;28;20075;-79
2024/03/20 12:28:58;;;;;;;7.45;1.88;;;;;;;23.84;26.67;97564.06;4944618;28;20042;-80
2024/03/20 12:31:29;;;;;;;3.13;2.30;;;;;;;22.36;28.95;97576.28;4951333;28;20023;-80
2024/03/20 12:34:08;;;;;;;15.63;9.63;;;;;;;24.17;26.62;97571.97;4938490;28;20027;-80
2024/03/20 12:36:43;;;;;;;29.13;4.32;;;;;;;23.62;27.99;97563.81;4964837;28;20285;-80
2024/03/20 12:39:23;;;;;;;5.30;2.88;;;;;;;22.97;28.50;97567.66;4962600;28;20554;-81
2024/03/20 12:41:52;;;;;;;42.42;18.75;;;;;;;23.27;27.68;97566.09;4942238;28;20125;-81
2024/03/20 12:47:34;;;;;;;10.88;6.72;;;;;;;22.64;28.20;97572.25;4962813;28;20027;-79
2024/03/20 12:50:11;;;;;;;95.28;51.22;;;;;;;23.02;27.58;97565.25;4937614;28;20035;-81
2024/03/20 12:52:41;;;;;;;161.98;79.80;;;;;;;23.28;27.95;97567.78;4962142;28;20041;-82